sensor_id;sensor_type;location;lat;lon;timestamp;pressure;altitude;pressure_sealevel;temperature;humidity
1926;BME280;964;42.606;23.588;2022-10-16T00:00:07;95175.63;;;21.50;37.72
1926;BME280;964;42.606;23.588;2022-10-16T00:02:34;95169.34;;;21.90;36.43
1926;BME280;964;42.606;23.588;2022-10-16T00:05:01;95177.34;;;21.33;37.95
1926;BME280;964;42.606;23.588;2022-10-16T00:07:28;95169.38;;;21.23;38.18
1926;BME280;964;42.606;23.588;2022-10-16T00:09:55;95166.63;;;22.21;37.08
1926;BME280;964;42.606;23.588;2022-10-16T00:12:21;95178.72;;;21.15;38.31
1926;BME280;964;42.606;23.588;2022-10-16T00:14:50;95178.94;;;21.61;37.45
1926;BME280;964;42.606;23.588;2022-10-16T00:17:17;95194.56;;;20.61;39.22
1926;BME280;964;42.606;23.588;2022-10-16T00:19:44;95187.03;;;20.42;39.12
1926;BME280;964;42.606;23.588;2022-10-16T00:22:11;95191.50;;;20.59;39.92
1926;BME280;964;42.606;23.588;2022-10-16T00:24:37;95193.28;;;20.28;40.10
1926;BME280;964;42.606;23.588;2022-10-16T00:27:04;95188.81;;;21.75;37.21
1926;BME280;964;42.606;23.588;2022-10-16T00:29:31;95200.94;;;21.26;38.53
1926;BME280;964;42.606;23.588;2022-10-16T00:31:59;95189.56;;;21.75;37.72
1926;BME280;964;42.606;23.588;2022-10-16T00:34:26;95192.91;;;21.56;37.72
1926;BME280;964;42.606;23.588;2022-10-16T00:36:53;95181.06;;;22.34;36.44
1926;BME280;964;42.606;23.588;2022-10-16T00:39:20;95186.03;;;21.82;37.58
1926;BME280;964;42.606;23.588;2022-10-16T00:41:47;95193.44;;;22.05;37.08
1926;BME280;964;42.606;23.588;2022-10-16T00:44:43;95198.63;;;21.58;37.65
1926;BME280;964;42.606;23.588;2022-10-16T00:47:15;95195.44;;;22.00;36.99
1926;BME280;964;42.606;23.588;2022-10-16T00:49:44;95193.66;;;21.57;37.74
1926;BME280;964;42.606;23.588;2022-10-16T00:52:13;95185.09;;;21.95;37.30
1926;BME280;964;42.606;23.588;2022-10-16T00:54:41;95190.38;;;21.72;37.33
1926;BME280;964;42.606;23.588;2022-10-16T00:57:08;95188.56;;;21.96;37.13
1926;BME280;964;42.606;23.588;2022-10-16T00:59:36;95191.00;;;21.83;37.36
1926;BME280;964;42.606;23.588;2022-10-16T01:02:06;95191.91;;;22.07;36.56
1926;BME280;964;42.606;23.588;2022-10-16T01:04:37;95189.19;;;22.07;36.41
1926;BME280;964;42.606;23.588;2022-10-16T01:07:12;95192.44;;;21.95;36.85
1926;BME280;964;42.606;23.588;2022-10-16T01:09:49;95194.03;;;21.89;37.07
1926;BME280;964;42.606;23.588;2022-10-16T01:12:23;95205.34;;;22.11;36.59
1926;BME280;964;42.606;23.588;2022-10-16T01:14:58;95196.53;;;21.73;37.18
1926;BME280;964;42.606;23.588;2022-10-16T01:17:34;95199.47;;;21.85;37.03
1926;BME280;964;42.606;23.588;2022-10-16T01:20:10;95203.22;;;22.48;35.83
1926;BME280;964;42.606;23.588;2022-10-16T01:22:50;95206.22;;;22.00;37.27
1926;BME280;964;42.606;23.588;2022-10-16T01:25:27;95208.72;;;21.84;37.09
1926;BME280;964;42.606;23.588;2022-10-16T01:27:59;95200.81;;;22.00;36.96
1926;BME280;964;42.606;23.588;2022-10-16T01:30:30;95192.81;;;22.24;36.65
1926;BME280;964;42.606;23.588;2022-10-16T01:33:02;95193.63;;;22.21;36.13
1926;BME280;964;42.606;23.588;2022-10-16T01:35:35;95189.38;;;21.89;36.54
1926;BME280;964;42.606;23.588;2022-10-16T01:38:06;95192.25;;;22.09;36.68
1926;BME280;964;42.606;23.588;2022-10-16T01:40:36;95187.81;;;21.95;37.02
1926;BME280;964;42.606;23.588;2022-10-16T01:43:08;95186.88;;;22.06;36.40
1926;BME280;964;42.606;23.588;2022-10-16T01:45:37;95192.66;;;22.08;36.93
1926;BME280;964;42.606;23.588;2022-10-16T01:48:05;95191.16;;;22.30;36.19
1926;BME280;964;42.606;23.588;2022-10-16T01:50:37;95190.25;;;22.40;36.09
1926;BME280;964;42.606;23.588;2022-10-16T01:53:07;95190.88;;;22.51;35.45
1926;BME280;964;42.606;23.588;2022-10-16T01:55:38;95189.59;;;22.82;35.07
1926;BME280;964;42.606;23.588;2022-10-16T01:58:13;95186.59;;;22.27;36.06
1926;BME280;964;42.606;23.588;2022-10-16T02:00:42;95194.28;;;22.28;35.97
1926;BME280;964;42.606;23.588;2022-10-16T02:03:12;95191.91;;;22.57;35.90
1926;BME280;964;42.606;23.588;2022-10-16T02:05:44;95197.19;;;22.14;35.83
1926;BME280;964;42.606;23.588;2022-10-16T02:08:12;95199.09;;;23.14;34.51
1926;BME280;964;42.606;23.588;2022-10-16T02:10:39;95207.22;;;22.14;35.97
1926;BME280;964;42.606;23.588;2022-10-16T02:13:09;95200.97;;;22.47;35.59
1926;BME280;964;42.606;23.588;2022-10-16T02:15:38;95200.97;;;22.47;35.35
1926;BME280;964;42.606;23.588;2022-10-16T02:18:05;95201.88;;;21.76;36.88
1926;BME280;964;42.606;23.588;2022-10-16T02:20:37;95201.25;;;22.79;35.23
1926;BME280;964;42.606;23.588;2022-10-16T02:23:10;95203.19;;;21.98;36.27
1926;BME280;964;42.606;23.588;2022-10-16T02:25:41;95203.59;;;22.51;35.82
1926;BME280;964;42.606;23.588;2022-10-16T02:28:14;95211.06;;;21.82;36.47
1926;BME280;964;42.606;23.588;2022-10-16T02:30:46;95207.56;;;22.16;35.76
1926;BME280;964;42.606;23.588;2022-10-16T02:33:16;95220.50;;;21.67;36.66
1926;BME280;964;42.606;23.588;2022-10-16T02:35:46;95216.34;;;21.89;36.48
1926;BME280;964;42.606;23.588;2022-10-16T02:38:15;95231.50;;;20.61;38.72
1926;BME280;964;42.606;23.588;2022-10-16T02:40:42;95235.78;;;20.51;38.60
1926;BME280;964;42.606;23.588;2022-10-16T02:43:10;95234.38;;;19.49;40.71
1926;BME280;964;42.606;23.588;2022-10-16T02:45:37;95227.97;;;21.19;37.43
1926;BME280;964;42.606;23.588;2022-10-16T02:48:06;95231.91;;;21.03;37.57
1926;BME280;964;42.606;23.588;2022-10-16T02:50:33;95234.25;;;21.76;36.32
1926;BME280;964;42.606;23.588;2022-10-16T02:52:59;95221.22;;;22.32;34.95
1926;BME280;964;42.606;23.588;2022-10-16T02:55:26;95239.00;;;21.65;36.00
1926;BME280;964;42.606;23.588;2022-10-16T02:57:54;95231.69;;;21.28;36.71
1926;BME280;964;42.606;23.588;2022-10-16T03:00:21;95232.41;;;21.36;36.89
1926;BME280;964;42.606;23.588;2022-10-16T03:02:48;95248.13;;;21.00;37.62
1926;BME280;964;42.606;23.588;2022-10-16T03:05:16;95245.19;;;20.80;38.08
1926;BME280;964;42.606;23.588;2022-10-16T03:07:43;95238.09;;;21.00;37.69
1926;BME280;964;42.606;23.588;2022-10-16T03:10:10;95238.00;;;20.63;38.57
1926;BME280;964;42.606;23.588;2022-10-16T03:12:37;95237.66;;;21.13;37.59
1926;BME280;964;42.606;23.588;2022-10-16T03:15:04;95241.59;;;20.97;37.91
1926;BME280;964;42.606;23.588;2022-10-16T03:17:32;95242.88;;;20.82;38.40
1926;BME280;964;42.606;23.588;2022-10-16T03:20:00;95241.84;;;21.10;37.90
1926;BME280;964;42.606;23.588;2022-10-16T03:22:28;95240.13;;;21.34;37.45
1926;BME280;964;42.606;23.588;2022-10-16T03:24:55;95248.84;;;21.04;37.64
1926;BME280;964;42.606;23.588;2022-10-16T03:27:22;95246.53;;;21.47;36.43
1926;BME280;964;42.606;23.588;2022-10-16T03:29:48;95244.81;;;21.64;36.68
1926;BME280;964;42.606;23.588;2022-10-16T03:32:15;95245.94;;;21.66;36.18
1926;BME280;964;42.606;23.588;2022-10-16T03:34:42;95237.34;;;21.78;36.11
1926;BME280;964;42.606;23.588;2022-10-16T03:37:09;95240.84;;;21.72;36.07
1926;BME280;964;42.606;23.588;2022-10-16T03:39:37;95244.31;;;21.72;36.31
1926;BME280;964;42.606;23.588;2022-10-16T03:42:04;95240.34;;;21.84;36.43
1926;BME280;964;42.606;23.588;2022-10-16T03:44:31;95233.88;;;22.08;35.54
1926;BME280;964;42.606;23.588;2022-10-16T03:46:58;95236.50;;;22.42;34.91
1926;BME280;964;42.606;23.588;2022-10-16T03:49:25;95229.25;;;22.09;34.74
1926;BME280;964;42.606;23.588;2022-10-16T03:51:52;95232.28;;;22.14;34.44
1926;BME280;964;42.606;23.588;2022-10-16T03:54:21;95244.47;;;22.26;34.20
1926;BME280;964;42.606;23.588;2022-10-16T03:56:50;95232.88;;;22.52;34.28
1926;BME280;964;42.606;23.588;2022-10-16T03:59:16;95235.25;;;22.50;33.77
1926;BME280;964;42.606;23.588;2022-10-16T04:01:43;95232.19;;;22.21;33.75
1926;BME280;964;42.606;23.588;2022-10-16T04:04:10;95237.97;;;21.93;34.32
1926;BME280;964;42.606;23.588;2022-10-16T04:06:37;95242.66;;;21.85;34.73
1926;BME280;964;42.606;23.588;2022-10-16T04:09:03;95239.06;;;22.26;34.12
1926;BME280;964;42.606;23.588;2022-10-16T04:11:30;95248.94;;;22.36;34.08
1926;BME280;964;42.606;23.588;2022-10-16T04:13:59;95248.25;;;22.32;33.68
1926;BME280;964;42.606;23.588;2022-10-16T04:16:26;95253.84;;;21.84;34.33
1926;BME280;964;42.606;23.588;2022-10-16T04:18:52;95258.03;;;21.88;34.61
1926;BME280;964;42.606;23.588;2022-10-16T04:21:19;95255.44;;;21.44;35.12
1926;BME280;964;42.606;23.588;2022-10-16T04:23:46;95255.25;;;21.62;34.97
1926;BME280;964;42.606;23.588;2022-10-16T04:26:13;95250.66;;;21.59;34.90
1926;BME280;964;42.606;23.588;2022-10-16T04:28:40;95254.53;;;21.91;35.00
1926;BME280;964;42.606;23.588;2022-10-16T04:31:08;95256.72;;;21.66;34.54
1926;BME280;964;42.606;23.588;2022-10-16T04:33:35;95257.41;;;21.40;34.66
1926;BME280;964;42.606;23.588;2022-10-16T04:36:03;95265.13;;;21.38;34.98
1926;BME280;964;42.606;23.588;2022-10-16T04:38:30;95258.84;;;21.48;34.73
1926;BME280;964;42.606;23.588;2022-10-16T04:40:57;95256.03;;;21.59;34.71
1926;BME280;964;42.606;23.588;2022-10-16T04:43:23;95268.81;;;21.14;35.10
1926;BME280;964;42.606;23.588;2022-10-16T04:45:51;95275.78;;;21.52;34.55
1926;BME280;964;42.606;23.588;2022-10-16T04:48:21;95271.09;;;21.56;34.50
1926;BME280;964;42.606;23.588;2022-10-16T04:50:48;95277.91;;;20.82;36.20
1926;BME280;964;42.606;23.588;2022-10-16T04:53:15;95278.41;;;20.63;36.56
1926;BME280;964;42.606;23.588;2022-10-16T04:55:42;95280.72;;;20.65;36.65
1926;BME280;964;42.606;23.588;2022-10-16T04:58:09;95285.59;;;20.80;36.12
1926;BME280;964;42.606;23.588;2022-10-16T05:00:36;95289.94;;;20.64;36.93
1926;BME280;964;42.606;23.588;2022-10-16T05:03:36;95290.75;;;20.57;36.28
1926;BME280;964;42.606;23.588;2022-10-16T05:06:05;95292.97;;;20.76;36.23
1926;BME280;964;42.606;23.588;2022-10-16T05:08:32;95295.97;;;20.85;36.33
1926;BME280;964;42.606;23.588;2022-10-16T05:10:59;95307.16;;;21.32;36.79
1926;BME280;964;42.606;23.588;2022-10-16T05:13:26;95287.19;;;22.31;35.10
1926;BME280;964;42.606;23.588;2022-10-16T05:16:02;95276.88;;;24.12;33.10
1926;BME280;964;42.606;23.588;2022-10-16T05:18:29;95277.94;;;25.22;31.17
1926;BME280;964;42.606;23.588;2022-10-16T05:20:57;95272.13;;;26.76;29.22
1926;BME280;964;42.606;23.588;2022-10-16T05:23:24;95267.56;;;28.02;27.76
1926;BME280;964;42.606;23.588;2022-10-16T05:25:54;95259.72;;;29.27;25.79
1926;BME280;964;42.606;23.588;2022-10-16T05:28:24;95268.47;;;29.13;25.73
1926;BME280;964;42.606;23.588;2022-10-16T05:30:51;95269.59;;;30.76;24.15
1926;BME280;964;42.606;23.588;2022-10-16T05:33:20;95259.47;;;31.56;23.24
1926;BME280;964;42.606;23.588;2022-10-16T05:35:47;95260.53;;;32.85;22.25
1926;BME280;964;42.606;23.588;2022-10-16T05:38:16;95258.66;;;33.67;21.39
1926;BME280;964;42.606;23.588;2022-10-16T05:40:50;95257.91;;;34.12;20.76
1926;BME280;964;42.606;23.588;2022-10-16T05:43:17;95252.94;;;33.90;20.80
1926;BME280;964;42.606;23.588;2022-10-16T05:45:44;95258.69;;;34.38;20.39
1926;BME280;964;42.606;23.588;2022-10-16T05:48:19;95261.00;;;34.77;20.34
1926;BME280;964;42.606;23.588;2022-10-16T05:50:46;95264.50;;;34.72;20.57
1926;BME280;964;42.606;23.588;2022-10-16T05:53:13;95261.06;;;35.67;20.00
1926;BME280;964;42.606;23.588;2022-10-16T05:55:41;95257.13;;;35.96;19.14
1926;BME280;964;42.606;23.588;2022-10-16T05:58:08;95257.72;;;36.45;18.99
1926;BME280;964;42.606;23.588;2022-10-16T06:00:35;95259.78;;;36.61;19.25
1926;BME280;964;42.606;23.588;2022-10-16T06:03:02;95267.53;;;36.51;19.54
1926;BME280;964;42.606;23.588;2022-10-16T06:05:30;95266.78;;;37.06;19.19
1926;BME280;964;42.606;23.588;2022-10-16T06:07:57;95264.56;;;37.05;18.44
1926;BME280;964;42.606;23.588;2022-10-16T06:10:24;95276.78;;;36.09;19.75
1926;BME280;964;42.606;23.588;2022-10-16T06:12:52;95278.50;;;37.62;18.45
1926;BME280;964;42.606;23.588;2022-10-16T06:15:18;95265.66;;;38.17;18.09
1926;BME280;964;42.606;23.588;2022-10-16T06:17:45;95269.59;;;38.33;17.93
1926;BME280;964;42.606;23.588;2022-10-16T06:20:12;95286.22;;;37.75;18.37
1926;BME280;964;42.606;23.588;2022-10-16T06:22:39;95288.09;;;38.54;17.97
1926;BME280;964;42.606;23.588;2022-10-16T06:25:06;95294.03;;;37.76;18.42
1926;BME280;964;42.606;23.588;2022-10-16T06:27:33;95281.44;;;38.68;17.50
1926;BME280;964;42.606;23.588;2022-10-16T06:30:05;95281.47;;;38.98;17.66
1926;BME280;964;42.606;23.588;2022-10-16T06:32:32;95283.13;;;38.83;17.52
1926;BME280;964;42.606;23.588;2022-10-16T06:34:59;95298.03;;;38.39;18.14
1926;BME280;964;42.606;23.588;2022-10-16T06:37:26;95304.91;;;38.62;17.79
1926;BME280;964;42.606;23.588;2022-10-16T06:39:53;95309.22;;;39.22;17.50
1926;BME280;964;42.606;23.588;2022-10-16T06:42:20;95304.06;;;39.38;17.61
1926;BME280;964;42.606;23.588;2022-10-16T06:44:47;95312.56;;;39.64;17.13
1926;BME280;964;42.606;23.588;2022-10-16T06:47:15;95308.75;;;39.91;17.37
1926;BME280;964;42.606;23.588;2022-10-16T06:49:42;95312.66;;;40.01;17.35
1926;BME280;964;42.606;23.588;2022-10-16T06:52:09;95312.47;;;39.51;17.32
1926;BME280;964;42.606;23.588;2022-10-16T06:54:36;95315.41;;;40.26;16.70
1926;BME280;964;42.606;23.588;2022-10-16T06:57:03;95320.34;;;40.33;16.69
1926;BME280;964;42.606;23.588;2022-10-16T06:59:29;95328.88;;;39.97;17.48
1926;BME280;964;42.606;23.588;2022-10-16T07:01:56;95320.56;;;40.72;16.91
1926;BME280;964;42.606;23.588;2022-10-16T07:04:24;95327.22;;;39.10;17.98
1926;BME280;964;42.606;23.588;2022-10-16T07:06:51;95327.34;;;40.90;16.90
1926;BME280;964;42.606;23.588;2022-10-16T07:09:18;95321.81;;;42.14;15.49
1926;BME280;964;42.606;23.588;2022-10-16T07:11:45;95326.50;;;42.32;15.94
1926;BME280;964;42.606;23.588;2022-10-16T07:14:15;95325.31;;;42.40;15.75
1926;BME280;964;42.606;23.588;2022-10-16T07:16:43;95331.94;;;42.84;15.35
1926;BME280;964;42.606;23.588;2022-10-16T07:19:09;95332.09;;;42.05;16.39
1926;BME280;964;42.606;23.588;2022-10-16T07:21:40;95331.81;;;42.22;15.90
1926;BME280;964;42.606;23.588;2022-10-16T07:24:11;95326.00;;;43.50;15.08
1926;BME280;964;42.606;23.588;2022-10-16T07:26:39;95322.81;;;44.10;15.03
1926;BME280;964;42.606;23.588;2022-10-16T07:29:07;95319.31;;;43.32;15.40
1926;BME280;964;42.606;23.588;2022-10-16T07:31:34;95319.31;;;43.53;15.69
1926;BME280;964;42.606;23.588;2022-10-16T07:34:01;95329.00;;;42.56;15.39
1926;BME280;964;42.606;23.588;2022-10-16T07:36:27;95329.41;;;42.60;16.14
1926;BME280;964;42.606;23.588;2022-10-16T07:38:56;95329.50;;;42.34;15.72
1926;BME280;964;42.606;23.588;2022-10-16T07:41:23;95333.81;;;42.89;15.78
1926;BME280;964;42.606;23.588;2022-10-16T07:43:50;95330.69;;;42.59;16.44
1926;BME280;964;42.606;23.588;2022-10-16T07:46:19;95344.53;;;42.18;16.36
1926;BME280;964;42.606;23.588;2022-10-16T07:48:47;95321.75;;;43.36;15.62
1926;BME280;964;42.606;23.588;2022-10-16T07:51:15;95321.16;;;43.30;15.66
1926;BME280;964;42.606;23.588;2022-10-16T07:53:42;95323.97;;;43.58;15.34
1926;BME280;964;42.606;23.588;2022-10-16T07:56:11;95320.75;;;43.26;15.98
1926;BME280;964;42.606;23.588;2022-10-16T07:58:39;95317.09;;;43.87;15.28
1926;BME280;964;42.606;23.588;2022-10-16T08:01:08;95323.41;;;43.52;15.42
1926;BME280;964;42.606;23.588;2022-10-16T08:03:35;95323.19;;;43.78;15.29
1926;BME280;964;42.606;23.588;2022-10-16T08:06:03;95317.75;;;44.09;14.89
1926;BME280;964;42.606;23.588;2022-10-16T08:08:31;95329.06;;;43.39;15.57
1926;BME280;964;42.606;23.588;2022-10-16T08:10:57;95317.72;;;44.37;14.92
1926;BME280;964;42.606;23.588;2022-10-16T08:13:26;95323.59;;;44.18;15.12
1926;BME280;964;42.606;23.588;2022-10-16T08:15:53;95340.97;;;42.30;15.39
1926;BME280;964;42.606;23.588;2022-10-16T08:18:20;95342.00;;;40.90;16.87
1926;BME280;964;42.606;23.588;2022-10-16T08:20:47;95341.09;;;42.72;15.34
1926;BME280;964;42.606;23.588;2022-10-16T08:23:14;95335.59;;;42.79;15.53
1926;BME280;964;42.606;23.588;2022-10-16T08:25:41;95340.41;;;42.79;15.62
1926;BME280;964;42.606;23.588;2022-10-16T08:28:10;95329.78;;;43.60;15.76
1926;BME280;964;42.606;23.588;2022-10-16T08:30:38;95320.72;;;44.47;14.55
1926;BME280;964;42.606;23.588;2022-10-16T08:33:05;95318.69;;;43.47;15.14
1926;BME280;964;42.606;23.588;2022-10-16T08:35:32;95341.19;;;42.19;15.52
1926;BME280;964;42.606;23.588;2022-10-16T08:37:59;95330.81;;;42.67;16.04
1926;BME280;964;42.606;23.588;2022-10-16T08:40:27;95335.44;;;42.64;15.49
1926;BME280;964;42.606;23.588;2022-10-16T08:43:09;95332.22;;;43.64;15.29
1926;BME280;964;42.606;23.588;2022-10-16T08:45:46;95319.38;;;44.99;14.23
1926;BME280;964;42.606;23.588;2022-10-16T08:48:20;95326.81;;;45.04;14.51
1926;BME280;964;42.606;23.588;2022-10-16T08:50:50;95316.03;;;45.38;14.21
1926;BME280;964;42.606;23.588;2022-10-16T08:53:22;95337.72;;;41.92;15.09
1926;BME280;964;42.606;23.588;2022-10-16T08:55:52;95337.16;;;42.88;15.77
1926;BME280;964;42.606;23.588;2022-10-16T08:58:21;95343.56;;;41.04;16.25
1926;BME280;964;42.606;23.588;2022-10-16T09:00:53;95337.75;;;41.34;16.20
1926;BME280;964;42.606;23.588;2022-10-16T09:03:35;95338.16;;;40.93;16.03
1926;BME280;964;42.606;23.588;2022-10-16T09:06:12;95352.19;;;38.75;18.03
1926;BME280;964;42.606;23.588;2022-10-16T09:08:48;95339.50;;;39.93;16.88
1926;BME280;964;42.606;23.588;2022-10-16T09:11:26;95341.19;;;39.53;16.60
1926;BME280;964;42.606;23.588;2022-10-16T09:14:00;95349.28;;;40.00;17.12
1926;BME280;964;42.606;23.588;2022-10-16T09:16:35;95339.84;;;41.60;15.81
1926;BME280;964;42.606;23.588;2022-10-16T09:19:09;95330.16;;;42.94;15.21
1926;BME280;964;42.606;23.588;2022-10-16T09:21:42;95332.94;;;43.57;14.76
1926;BME280;964;42.606;23.588;2022-10-16T09:24:13;95327.78;;;43.97;14.63
1926;BME280;964;42.606;23.588;2022-10-16T09:26:41;95332.03;;;43.90;14.26
1926;BME280;964;42.606;23.588;2022-10-16T09:29:10;95315.16;;;43.75;14.24
1926;BME280;964;42.606;23.588;2022-10-16T09:31:40;95334.56;;;42.56;14.59
1926;BME280;964;42.606;23.588;2022-10-16T09:34:16;95318.59;;;42.90;15.28
1926;BME280;964;42.606;23.588;2022-10-16T09:36:47;95333.16;;;42.16;15.03
1926;BME280;964;42.606;23.588;2022-10-16T09:39:14;95327.34;;;42.74;14.98
1926;BME280;964;42.606;23.588;2022-10-16T09:41:43;95331.38;;;42.65;14.96
1926;BME280;964;42.606;23.588;2022-10-16T09:44:20;95317.44;;;42.86;15.03
1926;BME280;964;42.606;23.588;2022-10-16T09:47:00;95321.13;;;42.81;15.43
1926;BME280;964;42.606;23.588;2022-10-16T09:49:27;95317.19;;;42.63;14.69
1926;BME280;964;42.606;23.588;2022-10-16T09:52:03;95309.69;;;43.13;14.71
1926;BME280;964;42.606;23.588;2022-10-16T09:54:30;95320.63;;;42.09;15.13
1926;BME280;964;42.606;23.588;2022-10-16T09:57:04;95316.44;;;42.29;14.78
1926;BME280;964;42.606;23.588;2022-10-16T09:59:31;95309.47;;;42.69;15.06
1926;BME280;964;42.606;23.588;2022-10-16T10:02:01;95304.03;;;42.84;14.90
1926;BME280;964;42.606;23.588;2022-10-16T10:04:38;95306.00;;;42.76;14.75
1926;BME280;964;42.606;23.588;2022-10-16T10:07:17;95311.63;;;42.63;15.24
1926;BME280;964;42.606;23.588;2022-10-16T10:09:45;95293.47;;;42.90;15.00
1926;BME280;964;42.606;23.588;2022-10-16T10:12:19;95299.88;;;41.71;15.64
1926;BME280;964;42.606;23.588;2022-10-16T10:14:47;95300.41;;;41.69;15.33
1926;BME280;964;42.606;23.588;2022-10-16T10:17:18;95299.44;;;40.95;16.03
1926;BME280;964;42.606;23.588;2022-10-16T10:19:51;95302.91;;;40.51;16.16
1926;BME280;964;42.606;23.588;2022-10-16T10:22:22;95303.72;;;39.90;16.22
1926;BME280;964;42.606;23.588;2022-10-16T10:28:15;95298.16;;;40.96;15.27
1926;BME280;964;42.606;23.588;2022-10-16T10:30:50;95295.94;;;40.95;16.03
1926;BME280;964;42.606;23.588;2022-10-16T10:33:29;95295.56;;;40.35;16.01
1926;BME280;964;42.606;23.588;2022-10-16T10:36:08;95285.94;;;40.73;15.96
1926;BME280;964;42.606;23.588;2022-10-16T10:38:43;95293.91;;;40.45;15.96
1926;BME280;964;42.606;23.588;2022-10-16T10:44:11;95283.97;;;40.68;16.10
1926;BME280;964;42.606;23.588;2022-10-16T10:46:44;95294.44;;;39.63;16.44
1926;BME280;964;42.606;23.588;2022-10-16T10:49:36;95290.59;;;40.65;15.44
1926;BME280;964;42.606;23.588;2022-10-16T10:52:20;95289.69;;;41.34;15.25
1926;BME280;964;42.606;23.588;2022-10-16T10:54:54;95283.09;;;40.60;15.74
1926;BME280;964;42.606;23.588;2022-10-16T10:57:29;95277.44;;;40.66;15.74
1926;BME280;964;42.606;23.588;2022-10-16T11:00:19;95280.53;;;41.39;15.17
1926;BME280;964;42.606;23.588;2022-10-16T11:02:52;95268.75;;;42.19;15.09
1926;BME280;964;42.606;23.588;2022-10-16T11:05:40;95266.16;;;41.87;14.58
1926;BME280;964;42.606;23.588;2022-10-16T11:08:12;95272.78;;;40.55;15.33
1926;BME280;964;42.606;23.588;2022-10-16T11:10:45;95275.94;;;39.47;15.97
1926;BME280;964;42.606;23.588;2022-10-16T11:13:21;95275.25;;;39.16;16.11
1926;BME280;964;42.606;23.588;2022-10-16T11:15:53;95265.84;;;39.68;16.00
1926;BME280;964;42.606;23.588;2022-10-16T11:18:29;95267.84;;;41.25;14.31
1926;BME280;964;42.606;23.588;2022-10-16T11:21:04;95264.41;;;41.32;14.56
1926;BME280;964;42.606;23.588;2022-10-16T11:23:38;95260.38;;;41.20;15.26
1926;BME280;964;42.606;23.588;2022-10-16T11:26:14;95257.38;;;41.70;14.87
1926;BME280;964;42.606;23.588;2022-10-16T11:28:45;95258.84;;;41.19;14.72
1926;BME280;964;42.606;23.588;2022-10-16T11:31:17;95254.69;;;41.65;14.73
1926;BME280;964;42.606;23.588;2022-10-16T11:33:49;95260.81;;;41.50;14.72
1926;BME280;964;42.606;23.588;2022-10-16T11:36:22;95252.97;;;41.75;14.10
1926;BME280;964;42.606;23.588;2022-10-16T11:38:57;95244.50;;;42.61;14.11
1926;BME280;964;42.606;23.588;2022-10-16T11:41:29;95244.03;;;42.91;13.72
1926;BME280;964;42.606;23.588;2022-10-16T11:47:12;95246.72;;;42.42;14.52
1926;BME280;964;42.606;23.588;2022-10-16T11:49:42;95247.50;;;42.63;14.38
1926;BME280;964;42.606;23.588;2022-10-16T11:52:19;95251.22;;;41.98;15.03
1926;BME280;964;42.606;23.588;2022-10-16T11:54:50;95255.84;;;41.03;14.43
1926;BME280;964;42.606;23.588;2022-10-16T11:57:21;95242.13;;;41.97;14.46
1926;BME280;964;42.606;23.588;2022-10-16T11:59:53;95247.22;;;42.95;13.40
1926;BME280;964;42.606;23.588;2022-10-16T12:02:38;95243.50;;;43.41;13.43
1926;BME280;964;42.606;23.588;2022-10-16T12:05:22;95245.09;;;43.65;13.23
1926;BME280;964;42.606;23.588;2022-10-16T12:07:59;95233.13;;;43.93;13.13
1926;BME280;964;42.606;23.588;2022-10-16T12:10:29;95241.03;;;44.17;12.83
1926;BME280;964;42.606;23.588;2022-10-16T12:12:57;95237.25;;;45.04;12.77
1926;BME280;964;42.606;23.588;2022-10-16T12:15:26;95236.72;;;45.91;12.98
1926;BME280;964;42.606;23.588;2022-10-16T12:17:53;95229.97;;;45.94;12.18
1926;BME280;964;42.606;23.588;2022-10-16T12:20:27;95237.22;;;46.12;12.47
1926;BME280;964;42.606;23.588;2022-10-16T12:22:59;95235.56;;;44.85;13.09
1926;BME280;964;42.606;23.588;2022-10-16T12:25:28;95238.38;;;45.01;13.19
1926;BME280;964;42.606;23.588;2022-10-16T12:28:01;95239.13;;;43.97;13.38
1926;BME280;964;42.606;23.588;2022-10-16T12:30:31;95241.72;;;45.14;13.01
1926;BME280;964;42.606;23.588;2022-10-16T12:33:00;95244.91;;;44.80;13.40
1926;BME280;964;42.606;23.588;2022-10-16T12:35:30;95237.63;;;46.01;11.75
1926;BME280;964;42.606;23.588;2022-10-16T12:38:08;95242.25;;;44.52;12.88
1926;BME280;964;42.606;23.588;2022-10-16T12:40:40;95241.66;;;44.38;12.35
1926;BME280;964;42.606;23.588;2022-10-16T12:43:25;95244.47;;;43.87;12.40
1926;BME280;964;42.606;23.588;2022-10-16T12:46:04;95261.66;;;41.58;13.39
1926;BME280;964;42.606;23.588;2022-10-16T12:48:31;95255.00;;;41.22;13.86
1926;BME280;964;42.606;23.588;2022-10-16T12:51:09;95259.38;;;42.43;13.35
1926;BME280;964;42.606;23.588;2022-10-16T12:53:38;95261.34;;;42.97;13.56
1926;BME280;964;42.606;23.588;2022-10-16T12:56:12;95261.03;;;44.29;12.51
1926;BME280;964;42.606;23.588;2022-10-16T12:58:52;95262.38;;;43.56;12.00
1926;BME280;964;42.606;23.588;2022-10-16T13:01:34;95256.75;;;43.84;12.17
1926;BME280;964;42.606;23.588;2022-10-16T13:04:22;95259.34;;;44.26;12.72
1926;BME280;964;42.606;23.588;2022-10-16T13:06:58;95264.13;;;43.74;12.62
1926;BME280;964;42.606;23.588;2022-10-16T13:09:40;95254.22;;;44.90;11.40
1926;BME280;964;42.606;23.588;2022-10-16T13:12:37;95260.94;;;46.03;11.18
1926;BME280;964;42.606;23.588;2022-10-16T13:15:18;95258.53;;;44.92;11.98
1926;BME280;964;42.606;23.588;2022-10-16T13:17:56;95260.94;;;44.72;12.29
1926;BME280;964;42.606;23.588;2022-10-16T13:20:31;95268.44;;;43.47;12.83
1926;BME280;964;42.606;23.588;2022-10-16T13:23:08;95263.63;;;43.47;12.40
1926;BME280;964;42.606;23.588;2022-10-16T13:25:48;95274.59;;;43.25;13.00
1926;BME280;964;42.606;23.588;2022-10-16T13:28:22;95268.22;;;44.17;12.31
1926;BME280;964;42.606;23.588;2022-10-16T13:30:56;95268.59;;;44.79;11.68
1926;BME280;964;42.606;23.588;2022-10-16T13:33:29;95265.34;;;44.37;12.66
1926;BME280;964;42.606;23.588;2022-10-16T13:35:57;95260.38;;;44.66;12.81
1926;BME280;964;42.606;23.588;2022-10-16T13:38:26;95271.59;;;43.79;12.74
1926;BME280;964;42.606;23.588;2022-10-16T13:40:57;95273.97;;;42.90;12.98
1926;BME280;964;42.606;23.588;2022-10-16T13:43:27;95286.81;;;42.39;13.34
1926;BME280;964;42.606;23.588;2022-10-16T13:45:57;95282.38;;;41.04;13.72
1926;BME280;964;42.606;23.588;2022-10-16T13:48:24;95293.81;;;42.32;13.63